createdAt,value
2022-09-02T00:01:01.347Z,58.84
2022-09-02T00:03:29.323Z,58.66
2022-09-02T00:05:57.511Z,58.51
2022-09-02T00:11:00.196Z,57.26
2022-09-02T00:13:28.858Z,59.38
2022-09-02T00:15:57.408Z,58.89
2022-09-02T00:18:28.628Z,59.06
2022-09-02T00:23:27.638Z,59.12
2022-09-02T00:25:57.629Z,58.76
2022-09-02T00:28:27.628Z,58.78
2022-09-02T00:30:57.873Z,58.83
2022-09-02T00:33:27.823Z,59.30
2022-09-02T00:38:28.877Z,58.89
2022-09-02T00:40:57.514Z,58.19
2022-09-02T00:43:39.686Z,59.08
2022-09-02T00:45:57.413Z,59.00
2022-09-02T00:48:27.594Z,58.49
2022-09-02T00:50:57.801Z,57.90
2022-09-02T00:53:27.421Z,59.23
2022-09-02T00:56:00.010Z,59.26
2022-09-02T00:58:31.993Z,58.66
2022-09-02T01:00:59.651Z,58.63
2022-09-02T01:03:30.414Z,59.62
2022-09-02T01:05:58.708Z,59.20
2022-09-02T01:08:31.943Z,59.09
2022-09-02T01:10:58.323Z,59.20
2022-09-02T01:16:05.840Z,58.66
2022-09-02T01:18:29.758Z,58.96
2022-09-02T01:20:59.441Z,59.08
2022-09-02T01:23:29.144Z,59.15
2022-09-02T01:25:57.865Z,59.36
2022-09-02T01:28:27.645Z,57.84
2022-09-02T01:30:57.397Z,59.11
2022-09-02T01:33:28.651Z,59.48
2022-09-02T01:35:58.662Z,59.17
2022-09-02T01:38:27.643Z,59.71
2022-09-02T01:40:57.417Z,59.30
2022-09-02T01:43:28.966Z,59.47
2022-09-02T01:45:58.959Z,58.94
2022-09-02T01:51:01.194Z,59.95
2022-09-02T01:53:29.462Z,59.81
2022-09-02T01:55:58.485Z,59.38
2022-09-02T01:58:27.784Z,59.04
2022-09-02T02:00:57.547Z,58.72
2022-09-02T02:03:27.588Z,59.58
2022-09-02T02:05:57.619Z,59.70
2022-09-02T02:10:57.536Z,60.75
2022-09-02T02:13:27.497Z,59.82
2022-09-02T02:18:28.938Z,59.58
2022-09-02T02:20:57.523Z,59.68
2022-09-02T02:23:27.790Z,59.59
2022-09-02T02:28:27.700Z,60.33
2022-09-02T02:30:58.969Z,60.25
2022-09-02T02:33:34.993Z,59.74
2022-09-02T02:35:58.329Z,60.29
2022-09-02T02:38:27.414Z,60.44
2022-09-02T02:40:58.411Z,60.01
2022-09-02T02:43:27.689Z,60.22
2022-09-02T02:45:58.048Z,59.12
2022-09-02T02:48:28.430Z,60.57
2022-09-02T02:50:57.454Z,60.35
2022-09-02T02:53:28.747Z,59.00
2022-09-02T02:55:58.424Z,60.84
2022-09-02T02:58:28.163Z,60.41
2022-09-02T03:00:58.236Z,59.39
2022-09-02T03:03:27.983Z,59.92
2022-09-02T03:05:57.861Z,59.72
2022-09-02T03:08:28.110Z,60.58
2022-09-02T03:10:58.699Z,60.78
2022-09-02T03:13:27.484Z,60.04
2022-09-02T03:15:57.560Z,60.19
2022-09-02T03:18:27.645Z,60.57
2022-09-02T03:20:58.158Z,60.45
2022-09-02T03:25:57.511Z,60.76
2022-09-02T03:33:27.751Z,60.54
2022-09-02T03:35:57.697Z,60.44
2022-09-02T03:38:27.590Z,59.88
2022-09-02T03:43:27.466Z,59.93
2022-09-02T03:45:57.629Z,60.79
2022-09-02T03:50:57.681Z,60.89
2022-09-02T03:53:28.088Z,61.31
2022-09-02T03:55:58.136Z,60.74
2022-09-02T03:58:27.618Z,60.87
2022-09-02T04:00:57.488Z,60.21
2022-09-02T04:03:27.989Z,60.90
2022-09-02T04:05:58.212Z,60.93
2022-09-02T04:08:28.079Z,61.04
2022-09-02T04:10:57.497Z,61.45
2022-09-02T04:13:27.464Z,61.40
2022-09-02T04:16:01.666Z,61.83
2022-09-02T04:18:29.260Z,61.18
2022-09-02T04:20:59.094Z,61.58
2022-09-02T04:23:27.768Z,60.50
2022-09-02T04:25:58.165Z,60.98
2022-09-02T04:28:27.897Z,60.41
2022-09-02T04:30:57.766Z,60.63
2022-09-02T04:33:27.453Z,61.62
2022-09-02T04:35:57.705Z,62.46
2022-09-02T04:40:57.920Z,61.48
2022-09-02T04:43:27.638Z,61.20
2022-09-02T04:48:27.628Z,60.07
2022-09-02T04:51:02.070Z,60.63
2022-09-02T04:53:27.515Z,61.70
2022-09-02T04:55:58.200Z,61.90
2022-09-02T04:58:27.763Z,62.12
2022-09-02T05:00:57.687Z,61.95
2022-09-02T05:03:29.342Z,62.14
2022-09-02T05:05:59.570Z,61.81
2022-09-02T05:08:27.751Z,62.41
2022-09-02T05:10:58.286Z,61.41
2022-09-02T05:13:28.149Z,62.24
2022-09-02T05:15:57.765Z,62.14
2022-09-02T05:18:28.398Z,62.08
2022-09-02T05:20:57.859Z,62.13
2022-09-02T05:23:27.616Z,62.60
2022-09-02T05:25:57.732Z,62.08
2022-09-02T05:31:04.601Z,62.57
2022-09-02T05:33:27.553Z,63.59
2022-09-02T05:35:58.136Z,62.55
2022-09-02T05:38:28.062Z,63.61
2022-09-02T05:40:58.825Z,62.94
2022-09-02T05:43:27.618Z,62.82
2022-09-02T05:45:59.005Z,63.45
2022-09-02T05:48:37.361Z,62.21
2022-09-02T05:50:58.516Z,62.23
2022-09-02T05:53:28.273Z,62.77
2022-09-02T05:55:57.940Z,62.89
2022-09-02T05:58:27.519Z,62.27
2022-09-02T06:00:58.128Z,62.60
2022-09-02T06:03:27.591Z,62.75
2022-09-02T06:06:01.674Z,62.31
2022-09-02T06:08:27.951Z,62.41
2022-09-02T06:11:00.111Z,62.48
2022-09-02T06:13:27.618Z,63.05
2022-09-02T06:15:57.681Z,62.73
2022-09-02T06:18:28.230Z,62.24
2022-09-02T06:20:57.762Z,62.37
2022-09-02T06:23:27.770Z,62.70
2022-09-02T06:25:58.727Z,62.54
2022-09-02T06:28:27.538Z,62.61
2022-09-02T06:30:57.693Z,62.53
2022-09-02T06:33:27.691Z,62.65
2022-09-02T06:35:57.640Z,62.31
2022-09-02T06:38:27.541Z,62.23
2022-09-02T06:40:58.242Z,61.91
2022-09-02T06:45:58.023Z,61.96
2022-09-02T06:48:27.774Z,61.81
2022-09-02T06:50:57.602Z,61.81
2022-09-02T06:53:27.681Z,61.44
2022-09-02T06:55:57.745Z,61.66
2022-09-02T06:58:27.720Z,63.08
2022-09-02T07:00:57.568Z,64.00
2022-09-02T07:03:37.469Z,63.80
2022-09-02T07:05:58.322Z,62.02
2022-09-02T07:08:28.402Z,61.83
2022-09-02T07:10:58.125Z,60.58
2022-09-02T07:13:27.539Z,58.70
2022-09-02T07:15:57.831Z,57.33
2022-09-02T07:18:27.805Z,54.69
2022-09-02T07:20:57.637Z,54.95
2022-09-02T07:23:27.696Z,53.85
2022-09-02T07:25:57.719Z,53.16
2022-09-02T07:28:28.020Z,49.33
2022-09-02T07:30:59.818Z,49.84
2022-09-02T07:33:28.003Z,47.81
2022-09-02T07:35:57.567Z,48.62
2022-09-02T07:38:27.776Z,47.06
2022-09-02T07:40:59.813Z,45.76
2022-09-02T07:43:28.956Z,45.30
2022-09-02T07:45:59.848Z,46.01
2022-09-02T07:48:29.230Z,43.86
2022-09-02T07:50:58.287Z,42.58
2022-09-02T07:53:28.652Z,43.60
2022-09-02T07:55:57.957Z,40.53
2022-09-02T07:58:28.594Z,41.29
2022-09-02T08:00:57.678Z,41.25
2022-09-02T08:03:27.980Z,39.89
2022-09-02T08:05:57.938Z,40.28
2022-09-02T08:08:28.457Z,39.90
2022-09-02T08:10:58.579Z,39.58
2022-09-02T08:13:27.952Z,38.34
2022-09-02T08:15:57.888Z,38.96
2022-09-02T08:20:58.026Z,37.21
2022-09-02T08:23:36.612Z,37.10
2022-09-02T08:25:57.873Z,37.28
2022-09-02T08:28:27.916Z,38.01
2022-09-02T08:30:58.181Z,37.32
2022-09-02T08:33:27.778Z,37.07
2022-09-02T08:36:01.980Z,38.42
2022-09-02T08:38:27.578Z,33.49
2022-09-02T08:40:59.054Z,35.71
2022-09-02T08:43:31.762Z,35.13
2022-09-02T08:46:04.074Z,35.58
2022-09-02T08:48:36.714Z,35.81
2022-09-02T08:51:02.462Z,34.33
2022-09-02T08:53:32.358Z,33.59
2022-09-02T08:56:00.389Z,34.42
2022-09-02T08:58:38.473Z,33.46
2022-09-02T09:01:06.728Z,33.48
2022-09-02T09:03:33.239Z,33.21
2022-09-02T09:06:06.983Z,34.37
2022-09-02T09:08:34.402Z,33.01
2022-09-02T09:11:01.729Z,33.87
2022-09-02T09:13:46.230Z,34.13
2022-09-02T09:16:07.061Z,33.75
2022-09-02T09:18:35.926Z,31.60
2022-09-02T09:20:57.610Z,31.48
2022-09-02T09:23:34.419Z,32.44
2022-09-02T09:26:05.998Z,32.89
2022-09-02T09:28:27.593Z,29.08
2022-09-02T09:30:59.791Z,31.03
2022-09-02T09:33:27.617Z,30.95
2022-09-02T09:35:57.811Z,29.59
2022-09-02T09:38:29.618Z,30.98
2022-09-02T09:41:10.011Z,30.08
2022-09-02T09:43:30.081Z,28.50
2022-09-02T09:45:57.638Z,28.74
2022-09-02T09:48:29.758Z,29.70
2022-09-02T09:51:10.152Z,29.72
2022-09-02T09:53:29.426Z,29.94
2022-09-02T09:56:00.539Z,28.88
2022-09-02T09:58:31.464Z,27.74
2022-09-02T10:00:59.638Z,28.32
2022-09-02T10:03:33.080Z,27.43
2022-09-02T10:06:17.058Z,28.09
2022-09-02T10:08:28.105Z,27.85
2022-09-02T10:13:29.977Z,28.04
2022-09-02T10:16:16.507Z,28.45
2022-09-02T10:18:37.273Z,28.23
2022-09-02T10:21:15.059Z,28.24
2022-09-02T10:23:38.524Z,28.39
2022-09-02T10:26:06.121Z,27.28
2022-09-02T10:28:45.138Z,28.22
2022-09-02T10:31:08.147Z,27.50
2022-09-02T10:33:36.676Z,28.69
2022-09-02T10:36:07.902Z,27.08
2022-09-02T10:38:36.356Z,27.92
2022-09-02T10:41:06.203Z,28.12
2022-09-02T10:43:45.762Z,28.46
2022-09-02T10:46:00.181Z,28.08
2022-09-02T10:48:44.702Z,27.08
2022-09-02T10:51:03.865Z,26.12
2022-09-02T10:53:42.802Z,26.43
2022-09-02T10:56:01.029Z,26.49
2022-09-02T10:58:38.276Z,26.65
2022-09-02T11:00:58.017Z,27.48
2022-09-02T11:03:32.506Z,26.47
2022-09-02T11:06:07.106Z,26.24
2022-09-02T11:08:37.561Z,26.71
2022-09-02T11:11:05.325Z,25.32
2022-09-02T11:13:36.414Z,25.79
2022-09-02T11:16:04.725Z,25.90
2022-09-02T11:18:34.510Z,25.36
2022-09-02T11:21:04.383Z,25.24
2022-09-02T11:23:36.307Z,25.20
2022-09-02T11:26:03.997Z,25.34
2022-09-02T11:28:37.746Z,25.37
2022-09-02T11:31:05.740Z,24.88
2022-09-02T11:33:33.649Z,23.35
2022-09-02T11:35:58.700Z,24.39
2022-09-02T11:38:35.146Z,23.33
2022-09-02T11:41:35.880Z,23.83
2022-09-02T11:43:39.431Z,23.05
2022-09-02T11:46:13.831Z,23.74
2022-09-02T11:48:47.096Z,23.81
2022-09-02T11:51:09.827Z,22.62
2022-09-02T11:53:30.867Z,23.13
2022-09-02T11:56:02.835Z,23.04
2022-09-02T11:58:33.617Z,22.88
2022-09-02T12:01:05.356Z,23.77
2022-09-02T12:03:51.830Z,23.59
2022-09-02T12:06:07.613Z,23.67
2022-09-02T12:08:49.706Z,22.24
2022-09-02T12:11:00.115Z,23.54
2022-09-02T12:13:35.830Z,23.40
2022-09-02T12:16:18.469Z,23.72
2022-09-02T12:18:30.884Z,22.59
2022-09-02T12:21:15.915Z,21.74
2022-09-02T12:23:47.514Z,21.56
2022-09-02T12:26:01.640Z,22.31
2022-09-02T12:28:30.130Z,22.22
2022-09-02T12:31:11.902Z,20.91
2022-09-02T12:33:29.232Z,21.60
2022-09-02T12:35:58.835Z,21.71
2022-09-02T12:38:30.358Z,21.47
2022-09-02T12:41:12.873Z,22.17
2022-09-02T12:43:34.572Z,21.72
2022-09-02T12:46:11.293Z,21.53
2022-09-02T12:48:39.782Z,21.59
2022-09-02T12:50:59.232Z,21.26
2022-09-02T12:53:34.717Z,21.50
2022-09-02T12:56:00.992Z,22.50
2022-09-02T12:58:32.965Z,22.21
2022-09-02T13:01:08.187Z,22.37
2022-09-02T13:03:46.098Z,22.44
2022-09-02T13:06:04.840Z,22.57
2022-09-02T13:08:47.623Z,23.00
2022-09-02T13:11:17.532Z,22.96
2022-09-02T13:13:47.681Z,23.15
2022-09-02T13:16:15.509Z,22.81
2022-09-02T13:18:47.619Z,23.11
2022-09-02T13:21:13.314Z,23.15
2022-09-02T13:23:47.815Z,23.47
2022-09-02T13:26:22.836Z,23.76
2022-09-02T13:28:47.501Z,23.32
2022-09-02T13:31:12.502Z,24.17
2022-09-02T13:33:28.183Z,24.23
2022-09-02T13:35:59.254Z,24.22
2022-09-02T13:38:29.979Z,24.82
2022-09-02T13:40:58.469Z,24.52
2022-09-02T13:43:28.044Z,24.97
2022-09-02T13:48:31.061Z,24.66
2022-09-02T13:51:06.662Z,24.48
2022-09-02T13:54:05.588Z,24.91
2022-09-02T13:55:59.578Z,24.55
2022-09-02T13:58:34.523Z,25.50
2022-09-02T14:01:17.278Z,25.49
2022-09-02T14:03:31.526Z,25.36
2022-09-02T14:05:59.120Z,25.70
2022-09-02T14:08:29.360Z,26.02
2022-09-02T14:13:28.067Z,26.08
2022-09-02T14:16:17.632Z,25.88
2022-09-02T14:18:27.724Z,25.98
2022-09-02T14:21:00.612Z,25.96
2022-09-02T14:23:32.355Z,26.27
2022-09-02T14:25:59.864Z,26.33
2022-09-02T14:28:30.522Z,26.62
2022-09-02T14:31:01.167Z,26.80
2022-09-02T14:33:38.910Z,26.83
2022-09-02T14:35:59.744Z,26.32
2022-09-02T14:38:30.191Z,26.56
2022-09-02T14:41:00.760Z,27.00
2022-09-02T14:43:39.814Z,27.30
2022-09-02T14:46:05.836Z,27.19
2022-09-02T14:48:27.799Z,27.15
2022-09-02T14:51:02.490Z,27.11
2022-09-02T14:53:28.088Z,27.38
2022-09-02T14:55:59.034Z,27.61
2022-09-02T14:58:28.079Z,27.30
2022-09-02T15:00:59.309Z,27.51
2022-09-02T15:03:30.471Z,27.40
2022-09-02T15:05:58.262Z,27.61
2022-09-02T15:08:28.173Z,27.41
2022-09-02T15:10:59.969Z,27.87
2022-09-02T15:13:31.752Z,27.52
2022-09-02T15:15:58.465Z,27.74
2022-09-02T15:18:28.086Z,27.61
2022-09-02T15:20:57.990Z,27.56
2022-09-02T15:23:30.005Z,27.92
2022-09-02T15:25:57.772Z,27.68
2022-09-02T15:28:28.953Z,28.03
2022-09-02T15:30:58.995Z,28.01
2022-09-02T15:33:27.961Z,27.95
2022-09-02T15:36:04.340Z,28.08
2022-09-02T15:38:27.762Z,28.19
2022-09-02T15:41:09.997Z,28.27
2022-09-02T15:43:28.280Z,28.35
2022-09-02T15:45:57.851Z,28.41
2022-09-02T15:48:31.780Z,28.39
2022-09-02T15:50:57.816Z,28.29
2022-09-02T15:53:27.957Z,28.44
2022-09-02T15:55:57.826Z,28.37
2022-09-02T15:58:27.779Z,28.39
2022-09-02T16:01:03.821Z,28.26
2022-09-02T16:03:28.084Z,28.34
2022-09-02T16:06:00.380Z,28.33
2022-09-02T16:08:28.072Z,28.24
2022-09-02T16:11:03.497Z,28.28
2022-09-02T16:13:29.150Z,28.37
2022-09-02T16:15:59.357Z,28.28
2022-09-02T16:18:28.045Z,28.58
2022-09-02T16:20:58.048Z,28.76
2022-09-02T16:23:28.031Z,28.79
2022-09-02T16:26:05.880Z,28.75
2022-09-02T16:28:27.878Z,28.83
2022-09-02T16:30:57.870Z,29.04
2022-09-02T16:33:27.961Z,29.16
2022-09-02T16:35:57.880Z,29.13
2022-09-02T16:38:28.019Z,29.21
2022-09-02T16:40:58.153Z,29.53
2022-09-02T16:43:30.217Z,29.95
2022-09-02T16:46:02.214Z,29.87
2022-09-02T16:48:32.119Z,29.86
2022-09-02T16:51:02.021Z,29.91
2022-09-02T16:53:28.297Z,30.07
2022-09-02T16:55:58.301Z,30.25
2022-09-02T16:58:28.853Z,30.36
2022-09-02T17:00:58.119Z,30.44
2022-09-02T17:03:27.903Z,30.59
2022-09-02T17:05:58.132Z,30.71
2022-09-02T17:08:27.836Z,30.83
2022-09-02T17:11:12.830Z,30.86
2022-09-02T17:13:27.820Z,31.14
2022-09-02T17:15:57.831Z,31.10
2022-09-02T17:18:27.915Z,31.10
2022-09-02T17:21:10.648Z,31.09
2022-09-02T17:23:27.982Z,31.24
2022-09-02T17:25:57.867Z,31.28
2022-09-02T17:28:27.819Z,31.41
2022-09-02T17:30:58.179Z,31.65
2022-09-02T17:33:27.979Z,32.00
2022-09-02T17:36:00.712Z,32.14
2022-09-02T17:38:27.841Z,32.15
2022-09-02T17:41:07.811Z,32.29
2022-09-02T17:43:28.026Z,32.65
2022-09-02T17:46:04.654Z,32.87
2022-09-02T17:48:45.129Z,32.99
2022-09-02T17:50:57.847Z,33.02
2022-09-02T17:53:27.919Z,33.39
2022-09-02T17:56:04.367Z,33.49
2022-09-02T17:58:36.705Z,33.49
2022-09-02T18:01:01.929Z,33.26
2022-09-02T18:03:42.697Z,33.74
2022-09-02T18:06:08.390Z,33.96
2022-09-02T18:08:35.324Z,34.12
2022-09-02T18:11:03.519Z,33.95
2022-09-02T18:13:38.955Z,34.18
2022-09-02T18:18:28.473Z,34.67
2022-09-02T18:21:03.221Z,34.57
2022-09-02T18:23:42.149Z,34.52
2022-09-02T18:26:06.024Z,35.25
2022-09-02T18:28:46.292Z,35.40
2022-09-02T18:31:08.183Z,34.88
2022-09-02T18:33:42.960Z,35.68
2022-09-02T18:38:39.489Z,36.17
2022-09-02T18:41:13.992Z,36.36
2022-09-02T18:43:39.380Z,36.23
2022-09-02T18:46:00.171Z,36.16
2022-09-02T18:48:31.598Z,36.49
2022-09-02T18:51:02.805Z,37.03
2022-09-02T18:56:03.158Z,37.72
2022-09-02T18:58:35.857Z,37.31
2022-09-02T19:01:01.336Z,37.69
2022-09-02T19:03:33.583Z,38.25
2022-09-02T19:05:57.870Z,38.40
2022-09-02T19:08:29.595Z,38.43
2022-09-02T19:11:02.130Z,38.05
2022-09-02T19:13:28.924Z,38.23
2022-09-02T19:18:28.159Z,38.30
2022-09-02T19:20:58.505Z,39.10
2022-09-02T19:23:29.602Z,37.69
2022-09-02T19:25:58.259Z,38.40
2022-09-02T19:28:28.576Z,38.21
2022-09-02T19:31:01.371Z,38.62
2022-09-02T19:33:30.945Z,38.37
2022-09-02T19:35:58.261Z,38.32
2022-09-02T19:38:28.261Z,38.55
2022-09-02T19:41:00.676Z,38.89
2022-09-02T19:43:28.841Z,38.58
2022-09-02T19:45:58.933Z,38.74
2022-09-02T19:48:28.099Z,38.84
2022-09-02T19:50:58.540Z,38.94
2022-09-02T19:53:29.363Z,38.91
2022-09-02T19:55:59.000Z,39.17
2022-09-02T19:58:28.094Z,39.99
2022-09-02T20:00:58.267Z,39.46
2022-09-02T20:03:28.902Z,39.62
2022-09-02T20:08:29.978Z,40.17
2022-09-02T20:10:59.741Z,39.88
2022-09-02T20:13:36.178Z,40.70
2022-09-02T20:15:57.960Z,40.69
2022-09-02T20:18:28.574Z,39.93
2022-09-02T20:20:59.721Z,40.32
2022-09-02T20:23:31.779Z,40.63
2022-09-02T20:26:12.720Z,39.73
2022-09-02T20:31:04.447Z,40.47
2022-09-02T20:33:37.738Z,40.73
2022-09-02T20:36:09.092Z,40.78
2022-09-02T20:38:44.345Z,40.95
2022-09-02T20:41:07.582Z,41.62
2022-09-02T20:43:46.378Z,41.29
2022-09-02T20:46:08.970Z,41.50
2022-09-02T20:48:45.267Z,41.23
2022-09-02T20:51:09.666Z,40.63
2022-09-02T20:53:41.400Z,41.53
2022-09-02T20:56:03.822Z,41.60
2022-09-02T20:58:39.154Z,41.57
2022-09-02T21:01:05.515Z,41.42
2022-09-02T21:03:40.100Z,42.14
2022-09-02T21:06:01.221Z,41.88
2022-09-02T21:08:31.838Z,40.85
2022-09-02T21:11:00.203Z,41.68
2022-09-02T21:13:36.349Z,41.80
2022-09-02T21:16:01.811Z,41.86
2022-09-02T21:18:33.662Z,41.66
2022-09-02T21:21:02.585Z,41.39
2022-09-02T21:23:32.900Z,42.19
2022-09-02T21:28:34.644Z,42.41
2022-09-02T21:33:32.812Z,42.19
2022-09-02T21:36:00.416Z,42.29
2022-09-02T21:38:33.748Z,42.22
2022-09-02T21:41:10.864Z,42.27
2022-09-02T21:43:43.844Z,42.35
2022-09-02T21:46:08.938Z,42.55
2022-09-02T21:48:34.102Z,42.50
2022-09-02T21:51:00.716Z,42.73
2022-09-02T21:53:44.011Z,43.03
2022-09-02T21:58:46.618Z,42.63
2022-09-02T22:01:04.588Z,42.75
2022-09-02T22:03:39.137Z,43.46
2022-09-02T22:06:06.084Z,42.07
2022-09-02T22:08:33.692Z,43.07
2022-09-02T22:11:07.526Z,42.55
2022-09-02T22:13:29.596Z,43.27
2022-09-02T22:16:12.206Z,43.22
2022-09-02T22:18:34.693Z,43.34
2022-09-02T22:21:02.362Z,43.16
2022-09-02T22:23:33.474Z,42.90
2022-09-02T22:26:10.316Z,43.05
2022-09-02T22:28:34.243Z,42.45
2022-09-02T22:31:03.618Z,42.97
2022-09-02T22:33:32.937Z,42.83
2022-09-02T22:41:10.874Z,42.42
2022-09-02T22:43:41.441Z,42.52
2022-09-02T22:46:15.355Z,41.54
2022-09-02T22:48:45.153Z,42.02
2022-09-02T22:51:18.443Z,42.51
2022-09-02T22:53:28.719Z,42.03
2022-09-02T22:56:01.877Z,41.90
2022-09-02T22:58:46.600Z,42.32
2022-09-02T23:01:06.655Z,42.94
2022-09-02T23:03:36.797Z,43.00
2022-09-02T23:06:07.405Z,42.77
2022-09-02T23:08:28.191Z,42.38
2022-09-02T23:11:06.167Z,43.19
2022-09-02T23:13:41.908Z,43.13
2022-09-02T23:16:10.136Z,42.74
2022-09-02T23:18:39.306Z,42.67
2022-09-02T23:21:08.668Z,43.55
2022-09-02T23:23:37.905Z,42.74
2022-09-02T23:26:10.662Z,42.94
2022-09-02T23:28:38.070Z,42.75
2022-09-02T23:31:06.159Z,42.71
2022-09-02T23:33:40.957Z,42.32
2022-09-02T23:36:10.828Z,42.64
2022-09-02T23:38:45.884Z,42.55
2022-09-02T23:41:05.478Z,42.31
2022-09-02T23:43:29.034Z,42.42
2022-09-02T23:46:03.417Z,42.50
2022-09-02T23:48:44.029Z,41.92
2022-09-02T23:51:12.363Z,42.37
2022-09-02T23:53:32.792Z,42.42
2022-09-02T23:56:11.667Z,42.62
2022-09-02T23:58:42.509Z,42.45
